createdAt,value
2019-04-26T00:00:47.341Z,12.66
2019-04-26T00:03:20.937Z,12.56
2019-04-26T00:05:51.302Z,12.58
2019-04-26T00:08:22.298Z,12.60
2019-04-26T00:11:14.033Z,12.56
2019-04-26T00:14:05.202Z,12.58
2019-04-26T00:16:43.707Z,12.57
2019-04-26T00:19:13.863Z,12.58
2019-04-26T00:21:44.393Z,12.60
2019-04-26T00:24:15.270Z,12.54
2019-04-26T00:26:45.515Z,12.50
2019-04-26T00:29:15.617Z,12.49
2019-04-26T00:31:45.724Z,12.50
2019-04-26T00:34:15.813Z,12.48
2019-04-26T00:36:46.213Z,12.51
2019-04-26T00:39:16.227Z,12.53
2019-04-26T00:41:46.518Z,12.54
2019-04-26T00:44:16.701Z,12.55
2019-04-26T00:46:46.835Z,12.55
2019-04-26T00:49:17.145Z,12.57
2019-04-26T00:51:47.357Z,12.56
2019-04-26T00:54:17.975Z,12.48
2019-04-26T00:56:48.166Z,12.43
2019-04-26T00:59:18.435Z,12.37
2019-04-26T01:01:52.216Z,12.41
2019-04-26T01:04:23.007Z,12.38
2019-04-26T01:06:54.760Z,12.38
2019-04-26T01:09:25.680Z,12.29
2019-04-26T01:11:55.820Z,12.24
2019-04-26T01:14:26.255Z,12.22
2019-04-26T01:16:56.437Z,12.20
2019-04-26T01:19:26.628Z,12.14
2019-04-26T01:21:58.545Z,12.10
2019-04-26T01:24:28.726Z,12.10
2019-04-26T01:26:58.797Z,12.15
2019-04-26T01:29:28.919Z,12.15
2019-04-26T01:32:04.440Z,12.14
2019-04-26T01:34:34.565Z,12.18
2019-04-26T01:37:04.706Z,12.20
2019-04-26T01:39:36.476Z,12.22
2019-04-26T01:42:15.773Z,12.22
2019-04-26T01:44:54.011Z,12.28
2019-04-26T01:47:24.321Z,12.35
2019-04-26T01:49:54.356Z,12.37
2019-04-26T01:52:27.632Z,12.36
2019-04-26T01:54:57.734Z,12.39
2019-04-26T01:57:27.834Z,12.40
2019-04-26T02:00:02.770Z,12.40
2019-04-26T02:02:49.897Z,12.40
2019-04-26T02:05:23.956Z,12.33
2019-04-26T02:07:54.304Z,12.31
2019-04-26T02:10:25.206Z,12.26
2019-04-26T02:12:55.319Z,12.23
2019-04-26T02:15:27.247Z,12.20
2019-04-26T02:17:57.318Z,12.19
2019-04-26T02:21:30.703Z,12.19
2019-04-26T02:24:19.464Z,12.12
2019-04-26T02:26:49.491Z,12.06
2019-04-26T02:29:25.285Z,12.02
2019-04-26T02:32:01.459Z,12.01
2019-04-26T02:34:33.192Z,11.96
2019-04-26T02:37:03.944Z,11.91
2019-04-26T02:39:39.539Z,11.85
2019-04-26T02:42:20.603Z,11.80
2019-04-26T02:45:04.045Z,11.79
2019-04-26T02:47:47.463Z,11.79
2019-04-26T02:50:22.373Z,11.82
2019-04-26T02:52:59.042Z,11.87
2019-04-26T02:56:11.471Z,11.88
2019-04-26T02:58:46.416Z,11.83
2019-04-26T03:01:16.490Z,11.85
2019-04-26T03:03:46.545Z,11.89
2019-04-26T03:06:16.584Z,11.89
2019-04-26T03:08:47.370Z,11.88
2019-04-26T03:11:19.536Z,11.88
2019-04-26T03:13:54.609Z,11.94
2019-04-26T03:16:53.360Z,11.94
2019-04-26T03:19:36.263Z,11.94
2019-04-26T03:22:12.401Z,11.97
2019-04-26T03:24:49.262Z,11.99
2019-04-26T03:27:41.859Z,12.03
2019-04-26T03:30:21.477Z,12.08
2019-04-26T03:33:26.458Z,12.07
2019-04-26T03:36:23.649Z,12.06
2019-04-26T03:39:14.363Z,12.06
2019-04-26T03:42:33.168Z,12.10
2019-04-26T03:45:37.136Z,12.21
2019-04-26T03:48:23.841Z,12.25
2019-04-26T03:51:03.798Z,12.26
2019-04-26T03:53:46.141Z,12.28
2019-04-26T03:56:43.647Z,12.27
2019-04-26T03:59:44.232Z,12.23
2019-04-26T04:02:29.838Z,12.29
2019-04-26T04:05:14.666Z,12.33
2019-04-26T04:07:49.367Z,12.36
2019-04-26T04:10:20.507Z,12.42
2019-04-26T04:13:08.978Z,12.41
2019-04-26T04:15:44.896Z,12.44
2019-04-26T04:18:19.802Z,12.46
2019-04-26T04:21:31.390Z,12.49
2019-04-26T04:24:12.464Z,12.52
2019-04-26T04:27:06.342Z,12.57
2019-04-26T04:30:06.761Z,12.63
2019-04-26T04:33:10.486Z,12.65
2019-04-26T04:35:49.267Z,12.69
2019-04-26T04:38:33.972Z,12.72
2019-04-26T04:41:26.610Z,12.75
2019-04-26T04:44:09.214Z,12.81
2019-04-26T04:47:24.627Z,12.80
2019-04-26T04:50:00.002Z,12.81
2019-04-26T04:53:06.824Z,12.84
2019-04-26T04:55:48.394Z,12.89
2019-04-26T04:58:21.094Z,12.90
2019-04-26T05:01:52.515Z,12.92
2019-04-26T05:04:30.103Z,12.95
2019-04-26T05:07:47.250Z,13.00
2019-04-26T05:10:37.817Z,13.03
2019-04-26T05:13:24.421Z,13.05
2019-04-26T05:16:35.909Z,13.05
2019-04-26T05:20:01.981Z,13.07
2019-04-26T05:23:15.362Z,13.08
2019-04-26T05:26:29.958Z,13.13
2019-04-26T05:30:03.659Z,13.18
2019-04-26T05:32:58.699Z,13.23
2019-04-26T05:35:57.351Z,13.35
2019-04-26T05:38:51.203Z,13.41
2019-04-26T05:42:01.857Z,13.55
2019-04-26T05:45:08.168Z,13.62
2019-04-26T05:48:08.409Z,13.71
2019-04-26T05:51:32.809Z,13.78
2019-04-26T05:54:44.680Z,13.83
2019-04-26T05:57:51.142Z,13.90
2019-04-26T06:00:43.489Z,13.95
2019-04-26T06:03:32.953Z,13.99
2019-04-26T06:06:29.554Z,14.01
2019-04-26T06:09:44.186Z,14.03
2019-04-26T06:12:23.346Z,14.06
2019-04-26T06:15:18.631Z,14.08
2019-04-26T06:18:19.560Z,14.14
2019-04-26T06:21:10.419Z,14.16
2019-04-26T06:23:44.053Z,14.21
2019-04-26T06:27:14.264Z,14.24
2019-04-26T06:29:56.568Z,14.27
2019-04-26T06:32:55.949Z,14.33
2019-04-26T06:35:20.382Z,14.36
2019-04-26T06:38:56.326Z,14.37
2019-04-26T06:42:07.829Z,14.41
2019-04-26T06:45:45.164Z,14.42
2019-04-26T06:48:26.941Z,14.41
2019-04-26T06:51:08.029Z,14.47
2019-04-26T06:53:48.041Z,14.50
2019-04-26T06:56:57.405Z,14.52
2019-04-26T07:00:06.634Z,14.57
2019-04-26T07:02:46.967Z,14.58
2019-04-26T07:05:20.558Z,14.45
2019-04-26T07:08:29.355Z,14.50
2019-04-26T07:11:54.960Z,14.57
2019-04-26T07:15:05.751Z,14.64
2019-04-26T07:17:57.884Z,14.66
2019-04-26T07:20:39.099Z,14.74
2019-04-26T07:24:18.193Z,14.78
2019-04-26T07:27:25.512Z,14.81
2019-04-26T07:30:21.939Z,14.83
2019-04-26T07:33:13.869Z,14.80
2019-04-26T07:35:50.690Z,14.81
2019-04-26T07:39:20.000Z,14.81
2019-04-26T07:42:28.803Z,14.86
2019-04-26T07:45:21.903Z,14.92
2019-04-26T07:48:18.924Z,14.91
2019-04-26T07:51:48.193Z,14.96
2019-04-26T07:54:47.802Z,14.96
2019-04-26T07:57:52.457Z,15.01
2019-04-26T08:00:30.462Z,15.08
2019-04-26T08:03:10.839Z,15.13
2019-04-26T08:05:45.138Z,15.18
2019-04-26T08:08:17.256Z,15.22
2019-04-26T08:11:18.745Z,15.28
2019-04-26T08:14:27.760Z,15.28
2019-04-26T08:17:30.828Z,15.31
2019-04-26T08:21:02.416Z,15.37
2019-04-26T08:23:41.320Z,15.37
2019-04-26T08:26:11.248Z,15.37
2019-04-26T08:28:41.233Z,15.42
2019-04-26T08:31:15.427Z,15.44
2019-04-26T08:33:49.670Z,15.52
2019-04-26T08:36:23.204Z,15.52
2019-04-26T08:38:52.525Z,15.52
2019-04-26T08:41:23.639Z,15.53
2019-04-26T08:44:11.389Z,15.59
2019-04-26T08:47:01.125Z,15.59
2019-04-26T08:49:48.251Z,15.55
2019-04-26T08:52:18.871Z,15.53
2019-04-26T08:54:57.838Z,15.54
2019-04-26T08:57:30.230Z,15.53
2019-04-26T09:00:00.454Z,15.58
2019-04-26T09:02:56.610Z,15.61
2019-04-26T09:05:52.239Z,15.61
2019-04-26T09:08:24.715Z,15.60
2019-04-26T09:10:54.738Z,15.52
2019-04-26T09:13:25.313Z,15.52
2019-04-26T09:16:09.313Z,15.50
2019-04-26T09:18:43.671Z,15.47
2019-04-26T09:21:13.363Z,15.44
2019-04-26T09:24:00.563Z,15.49
2019-04-26T09:26:35.452Z,15.49
2019-04-26T09:29:30.303Z,15.47
2019-04-26T09:32:16.777Z,15.45
2019-04-26T09:34:47.946Z,15.47
2019-04-26T09:37:18.135Z,15.43
2019-04-26T09:39:48.217Z,15.46
2019-04-26T09:42:39.327Z,15.48
2019-04-26T09:45:24.538Z,15.47
2019-04-26T09:47:59.701Z,15.48
2019-04-26T09:50:42.386Z,15.47
2019-04-26T09:53:12.490Z,15.48
2019-04-26T09:55:42.527Z,15.49
2019-04-26T09:58:12.545Z,15.48
2019-04-26T10:00:44.051Z,15.49
2019-04-26T10:03:14.464Z,15.42
2019-04-26T10:05:44.501Z,15.40
2019-04-26T10:08:14.636Z,15.38
2019-04-26T10:10:44.810Z,15.36
2019-04-26T10:13:33.826Z,15.35
2019-04-26T10:16:11.698Z,15.34
2019-04-26T10:18:44.694Z,15.35
2019-04-26T10:21:14.784Z,15.36
2019-04-26T10:23:44.807Z,15.32
2019-04-26T10:26:14.922Z,15.31
2019-04-26T10:28:46.795Z,15.27
2019-04-26T10:31:17.269Z,15.22
2019-04-26T10:33:47.391Z,15.24
2019-04-26T10:36:17.427Z,15.29
2019-04-26T10:38:47.448Z,15.32
2019-04-26T10:41:17.607Z,15.36
2019-04-26T10:43:47.646Z,15.41
2019-04-26T10:46:17.827Z,15.43
2019-04-26T10:48:49.809Z,15.45
2019-04-26T10:51:25.570Z,15.44
2019-04-26T10:54:06.001Z,15.44
2019-04-26T10:56:40.181Z,15.49
2019-04-26T10:59:27.630Z,15.50
2019-04-26T11:01:57.649Z,15.55
2019-04-26T11:04:27.674Z,15.53
2019-04-26T11:06:58.113Z,15.52
2019-04-26T11:09:29.423Z,15.55
2019-04-26T11:11:59.549Z,15.47
2019-04-26T11:14:29.659Z,15.45
2019-04-26T11:16:59.693Z,15.43
2019-04-26T11:19:31.944Z,15.43
2019-04-26T11:22:01.426Z,15.46
2019-04-26T11:24:31.454Z,15.48
2019-04-26T11:27:01.515Z,15.51
2019-04-26T11:29:31.547Z,15.55
2019-04-26T11:32:02.698Z,15.58
2019-04-26T11:34:33.270Z,15.61
2019-04-26T11:37:03.750Z,15.68
2019-04-26T11:39:36.533Z,15.68
2019-04-26T11:42:08.059Z,15.68
2019-04-26T11:44:38.343Z,15.69
2019-04-26T11:47:08.409Z,15.66
2019-04-26T11:49:41.631Z,15.67
2019-04-26T11:52:10.226Z,15.65
2019-04-26T11:54:40.312Z,15.69
2019-04-26T11:57:12.199Z,15.70
2019-04-26T11:59:42.106Z,15.74
2019-04-26T12:02:15.904Z,15.71
2019-04-26T12:05:12.019Z,15.78
2019-04-26T12:07:50.406Z,15.81
2019-04-26T12:10:20.678Z,15.71
2019-04-26T12:12:51.811Z,15.63
2019-04-26T12:15:30.132Z,15.52
2019-04-26T12:17:58.799Z,15.46
2019-04-26T12:20:28.156Z,15.46
2019-04-26T12:22:58.434Z,15.49
2019-04-26T12:25:31.012Z,15.46
2019-04-26T12:28:01.896Z,15.49
2019-04-26T12:30:31.972Z,15.60
2019-04-26T12:33:02.027Z,15.72
2019-04-26T12:35:32.153Z,15.88
2019-04-26T12:38:02.227Z,16.16
2019-04-26T12:40:32.417Z,16.40
2019-04-26T12:43:02.422Z,16.51
2019-04-26T12:45:51.515Z,16.62
2019-04-26T12:48:22.737Z,16.60
2019-04-26T12:50:52.777Z,16.53
2019-04-26T12:53:26.692Z,16.51
2019-04-26T12:55:58.153Z,16.47
2019-04-26T12:58:26.318Z,16.42
2019-04-26T13:00:56.634Z,16.38
2019-04-26T13:03:29.184Z,16.37
2019-04-26T13:05:59.136Z,16.35
2019-04-26T13:08:29.245Z,16.36
2019-04-26T13:11:18.301Z,16.37
2019-04-26T13:13:55.257Z,16.39
2019-04-26T13:16:44.279Z,16.39
2019-04-26T13:19:16.071Z,16.36
2019-04-26T13:21:46.802Z,16.34
2019-04-26T13:24:16.877Z,16.31
2019-04-26T13:26:46.935Z,16.31
2019-04-26T13:29:16.991Z,16.35
2019-04-26T13:31:47.051Z,16.37
2019-04-26T13:34:17.110Z,16.45
2019-04-26T13:36:47.237Z,16.59
2019-04-26T13:39:20.391Z,16.70
2019-04-26T13:42:01.471Z,16.75
2019-04-26T13:44:40.833Z,16.84
2019-04-26T13:47:29.878Z,16.94
2019-04-26T13:50:09.250Z,16.97
2019-04-26T13:52:39.302Z,16.99
2019-04-26T13:55:09.470Z,16.99
2019-04-26T13:57:40.292Z,17.08
2019-04-26T14:00:13.073Z,17.25
2019-04-26T14:02:43.182Z,17.30
2019-04-26T14:05:15.289Z,17.40
2019-04-26T14:07:44.956Z,17.43
2019-04-26T14:10:15.017Z,17.72
2019-04-26T14:12:46.245Z,17.73
2019-04-26T14:15:16.802Z,17.64
2019-04-26T14:17:46.874Z,17.58
2019-04-26T14:20:19.165Z,17.50
2019-04-26T14:22:57.784Z,17.41
2019-04-26T14:25:32.647Z,17.30
2019-04-26T14:28:02.669Z,17.10
2019-04-26T14:30:32.784Z,17.00
2019-04-26T14:33:02.903Z,16.94
2019-04-26T14:35:32.966Z,16.84
2019-04-26T14:38:03.114Z,16.81
2019-04-26T14:40:33.184Z,16.76
2019-04-26T14:43:07.033Z,16.67
2019-04-26T14:45:36.289Z,16.64
2019-04-26T14:48:19.834Z,16.60
2019-04-26T14:50:38.531Z,16.51
2019-04-26T14:53:08.599Z,16.54
2019-04-26T14:55:38.666Z,16.49
2019-04-26T14:58:08.742Z,16.50
2019-04-26T15:00:40.478Z,16.51
2019-04-26T15:03:20.932Z,16.49
2019-04-26T15:06:00.166Z,16.56
2019-04-26T15:08:32.084Z,16.60
2019-04-26T15:11:04.261Z,16.54
2019-04-26T15:13:36.173Z,16.48
2019-04-26T15:16:10.229Z,16.47
2019-04-26T15:18:38.861Z,16.49
2019-04-26T15:21:08.907Z,16.41
2019-04-26T15:23:39.085Z,16.38
2019-04-26T15:26:09.225Z,16.33
2019-04-26T15:28:39.278Z,16.28
2019-04-26T15:31:09.405Z,16.17
2019-04-26T15:33:42.715Z,16.17
2019-04-26T15:36:14.475Z,16.12
2019-04-26T15:38:45.014Z,16.06
2019-04-26T15:41:34.072Z,15.97
2019-04-26T15:44:20.234Z,15.87
2019-04-26T15:47:13.168Z,15.80
2019-04-26T15:50:05.561Z,15.69
2019-04-26T15:52:35.954Z,15.70
2019-04-26T15:55:06.215Z,15.71
2019-04-26T15:57:36.214Z,15.67
2019-04-26T16:00:06.341Z,15.67
2019-04-26T16:02:37.418Z,15.66
2019-04-26T16:05:09.365Z,15.70
2019-04-26T16:07:39.416Z,15.65
2019-04-26T16:10:09.469Z,15.65
2019-04-26T16:12:39.494Z,15.67
2019-04-26T16:15:11.506Z,15.70
2019-04-26T16:17:41.433Z,15.66
2019-04-26T16:20:11.925Z,15.63
2019-04-26T16:22:43.134Z,15.63
2019-04-26T16:25:13.240Z,15.60
2019-04-26T16:27:43.273Z,15.62
2019-04-26T16:30:32.573Z,15.63
2019-04-26T16:33:06.875Z,15.63
2019-04-26T16:35:37.086Z,15.59
2019-04-26T16:38:24.890Z,15.59
2019-04-26T16:40:55.301Z,15.52
2019-04-26T16:45:57.173Z,15.44
2019-04-26T16:48:27.252Z,15.42
2019-04-26T16:51:01.027Z,15.30
2019-04-26T16:53:43.766Z,15.34
2019-04-26T16:56:03.266Z,15.34
2019-04-26T16:58:38.103Z,15.37
2019-04-26T17:01:10.252Z,15.40
2019-04-26T17:03:38.097Z,15.31
2019-04-26T17:06:13.742Z,15.23
2019-04-26T17:08:49.127Z,15.26
2019-04-26T17:09:37.223Z,15.52
2019-04-26T17:11:14.063Z,15.15
2019-04-26T17:16:05.512Z,15.03
2019-04-26T17:18:35.829Z,14.93
2019-04-26T17:21:06.122Z,14.95
2019-04-26T17:24:13.482Z,14.92
2019-04-26T17:26:47.987Z,14.89
2019-04-26T17:29:18.097Z,14.87
2019-04-26T17:31:48.253Z,14.79
2019-04-26T17:34:18.336Z,14.67
2019-04-26T17:36:50.392Z,14.70
2019-04-26T17:39:22.318Z,14.67
2019-04-26T17:41:54.359Z,14.65
2019-04-26T17:44:26.450Z,14.51
2019-04-26T17:46:59.502Z,14.56
2019-04-26T17:49:28.979Z,14.52
2019-04-26T17:52:01.906Z,14.54
2019-04-26T17:54:45.934Z,14.36
2019-04-26T17:57:04.467Z,14.32
2019-04-26T17:59:36.817Z,14.35
2019-04-26T18:02:19.538Z,14.33
2019-04-26T18:04:40.825Z,14.22
2019-04-26T18:07:34.641Z,14.26
2019-04-26T18:09:46.497Z,14.24
2019-04-26T18:12:14.569Z,14.17
2019-04-26T18:14:44.706Z,14.25
2019-04-26T18:17:24.982Z,14.22
2019-04-26T18:20:07.834Z,14.18
2019-04-26T18:22:50.037Z,14.11
2019-04-26T18:25:20.151Z,14.12
2019-04-26T18:27:50.238Z,14.08
2019-04-26T18:30:20.320Z,14.08
2019-04-26T18:32:50.458Z,14.04
2019-04-26T18:35:20.596Z,14.13
2019-04-26T18:37:50.673Z,14.18
2019-04-26T18:40:23.119Z,14.14
2019-04-26T18:42:53.072Z,14.09
2019-04-26T18:45:28.873Z,14.05
2019-04-26T18:48:01.076Z,14.09
2019-04-26T18:50:28.426Z,14.21
2019-04-26T18:53:20.236Z,14.17
2019-04-26T18:55:50.993Z,14.26
2019-04-26T18:58:21.032Z,14.36
2019-04-26T19:00:51.057Z,14.36
2019-04-26T19:03:26.199Z,14.41
2019-04-26T19:05:54.188Z,14.48
2019-04-26T19:08:27.188Z,14.50
2019-04-26T19:11:01.158Z,14.54
2019-04-26T19:13:56.596Z,14.57
2019-04-26T19:16:46.392Z,14.65
2019-04-26T19:19:36.456Z,14.68
2019-04-26T19:22:09.550Z,14.72
2019-04-26T19:24:38.764Z,14.72
2019-04-26T19:27:08.901Z,14.68
2019-04-26T19:29:39.082Z,14.71
2019-04-26T19:32:09.251Z,14.68
2019-04-26T19:34:42.144Z,14.69
2019-04-26T19:37:13.113Z,14.68
2019-04-26T19:39:43.229Z,14.71
2019-04-26T19:42:14.910Z,14.69
2019-04-26T19:44:44.970Z,14.69
2019-04-26T19:47:35.452Z,14.66
2019-04-26T19:50:21.927Z,14.70
2019-04-26T19:53:22.985Z,14.66
2019-04-26T19:56:09.320Z,14.62
2019-04-26T19:58:39.552Z,14.60
2019-04-26T20:01:09.614Z,14.55
2019-04-26T20:03:41.476Z,14.54
2019-04-26T20:06:14.134Z,14.50
2019-04-26T20:08:45.895Z,14.50
2019-04-26T20:11:18.817Z,14.48
2019-04-26T20:13:51.823Z,14.47
2019-04-26T20:16:18.717Z,14.49
2019-04-26T20:18:48.782Z,14.48
2019-04-26T20:21:18.837Z,14.46
2019-04-26T20:23:52.159Z,14.47
2019-04-26T20:26:22.570Z,14.48
2019-04-26T20:28:52.718Z,14.45
2019-04-26T20:31:47.610Z,14.42
2019-04-26T20:34:18.426Z,14.33
2019-04-26T20:36:48.624Z,14.29
2019-04-26T20:39:20.955Z,14.25
2019-04-26T20:42:00.983Z,14.24
2019-04-26T20:44:28.390Z,14.22
2019-04-26T20:46:55.429Z,14.11
2019-04-26T20:49:25.514Z,14.08
2019-04-26T20:51:55.531Z,14.09
2019-04-26T20:54:25.575Z,14.06
2019-04-26T20:56:55.719Z,14.09
2019-04-26T20:59:25.877Z,14.13
2019-04-26T21:02:07.367Z,14.11
2019-04-26T21:04:37.146Z,14.13
2019-04-26T21:06:59.670Z,14.15
2019-04-26T21:09:29.733Z,14.11
2019-04-26T21:11:59.832Z,14.17
2019-04-26T21:14:31.517Z,14.21
2019-04-26T21:17:01.630Z,14.20
2019-04-26T21:19:32.836Z,14.28
2019-04-26T21:22:03.009Z,14.21
2019-04-26T21:24:36.839Z,14.21
2019-04-26T21:27:25.903Z,14.25
2019-04-26T21:30:24.329Z,14.30
2019-04-26T21:33:16.923Z,14.25
2019-04-26T21:36:06.020Z,14.22
2019-04-26T21:38:48.065Z,14.27
2019-04-26T21:41:20.647Z,14.22
2019-04-26T21:43:50.691Z,14.22
2019-04-26T21:46:20.711Z,14.24
2019-04-26T21:48:50.927Z,14.22
2019-04-26T21:51:22.964Z,14.16
2019-04-26T21:53:53.175Z,14.14
2019-04-26T21:56:24.166Z,14.10
2019-04-26T21:58:54.259Z,14.09
2019-04-26T22:01:25.250Z,14.10
2019-04-26T22:03:58.424Z,14.15
2019-04-26T22:06:28.863Z,14.13
2019-04-26T22:09:05.293Z,14.15
2019-04-26T22:11:36.898Z,14.14
2019-04-26T22:14:21.636Z,14.17
2019-04-26T22:17:05.347Z,14.18
2019-04-26T22:19:48.282Z,14.19
2019-04-26T22:22:37.559Z,14.16
2019-04-26T22:25:06.278Z,14.13
2019-04-26T22:27:36.333Z,14.04
2019-04-26T22:30:09.871Z,13.95
2019-04-26T22:32:39.922Z,13.88
2019-04-26T22:35:13.401Z,13.84
2019-04-26T22:37:45.599Z,13.80
2019-04-26T22:40:16.986Z,13.81
2019-04-26T22:42:47.301Z,13.81
2019-04-26T22:45:27.864Z,13.78
2019-04-26T22:48:04.698Z,13.79
2019-04-26T22:50:34.790Z,13.79
2019-04-26T22:53:04.867Z,13.85
2019-04-26T22:55:34.951Z,13.86
2019-04-26T22:58:05.162Z,13.81
2019-04-26T23:00:39.051Z,13.82
2019-04-26T23:03:09.284Z,13.81
2019-04-26T23:05:39.339Z,13.80
2019-04-26T23:08:09.500Z,13.64
2019-04-26T23:10:45.286Z,13.63
2019-04-26T23:13:37.754Z,13.68
2019-04-26T23:16:33.525Z,13.61
2019-04-26T23:19:15.219Z,13.64
2019-04-26T23:21:52.817Z,13.69
2019-04-26T23:24:18.921Z,13.70
2019-04-26T23:26:49.166Z,13.72
2019-04-26T23:29:19.249Z,13.77
2019-04-26T23:31:50.344Z,13.80
2019-04-26T23:34:20.430Z,13.80
2019-04-26T23:36:50.526Z,13.77
2019-04-26T23:39:20.615Z,13.79
2019-04-26T23:41:50.645Z,13.79
2019-04-26T23:44:20.691Z,13.83
2019-04-26T23:46:54.929Z,13.85
2019-04-26T23:49:25.326Z,13.84
2019-04-26T23:51:55.497Z,13.80
2019-04-26T23:54:28.185Z,13.79
2019-04-26T23:56:58.726Z,13.85
2019-04-26T23:59:29.027Z,13.78
